Time;durP1;ratioP1;P1;durP2;ratioP2;P2;SDS_P1;SDS_P2;PMS_P1;PMS_P2;Temp;Humidity;BMP_temperature;BMP_pressure;BME280_temperature;BME280_humidity;BME280_pressure;Samples;Min_cycle;Max_cycle;Signal;HPM_P1;HPM_P2
2021/09/19 00:01:57;;;;;;;17.70;8.73;;;13.00;99.90;;;;;;21021823;28;20058;-48
2021/09/19 00:11:58;;;;;;;14.80;8.80;;;12.90;99.90;;;;;;21016141;28;20040;-48
2021/09/19 00:22:01;;;;;;;16.15;9.35;;;12.60;99.90;;;;;;21006453;28;20040;-49
2021/09/19 00:32:03;;;;;;;13.05;7.43;;;12.40;99.90;;;;;;21008366;28;20098;-51
2021/09/19 00:42:05;;;;;;;14.98;9.57;;;12.40;99.90;;;;;;21000716;28;20032;-47
2021/09/19 00:52:07;;;;;;;20.52;10.55;;;12.20;99.90;;;;;;21002274;28;20033;-48
2021/09/19 01:02:10;;;;;;;19.33;10.27;;;12.10;99.90;;;;;;21001721;28;20082;-50
2021/09/19 01:12:12;;;;;;;18.25;10.07;;;12.20;99.90;;;;;;20998642;28;20029;-48
2021/09/19 01:22:15;;;;;;;20.38;11.32;;;12.20;99.90;;;;;;20995939;28;20472;-48
2021/09/19 01:32:21;;;;;;;20.70;10.07;;;12.20;99.90;;;;;;20993641;28;20048;-50
2021/09/19 01:42:27;;;;;;;17.15;9.45;;;12.20;99.90;;;;;;20991661;28;20037;-48
2021/09/19 01:52:30;;;;;;;17.45;9.02;;;12.10;99.90;;;;;;21068153;28;20472;-48
2021/09/19 02:02:36;;;;;;;17.27;10.05;;;12.20;99.90;;;;;;21074332;28;20039;-51
2021/09/19 02:12:41;;;;;;;14.15;8.25;;;12.30;99.90;;;;;;21072649;28;20087;-48
2021/09/19 02:22:43;;;;;;;14.35;8.90;;;12.60;99.90;;;;;;21073229;28;20024;-48
2021/09/19 02:32:45;;;;;;;16.00;9.05;;;12.80;99.90;;;;;;21041683;28;20384;-51
2021/09/19 02:42:51;;;;;;;18.75;11.38;;;12.90;99.90;;;;;;21028861;28;20028;-49
2021/09/19 02:52:54;;;;;;;25.00;11.52;;;13.00;99.90;;;;;;21077018;28;20040;-49
2021/09/19 03:02:55;;;;;;;22.65;12.35;;;13.10;99.90;;;;;;21089527;28;20032;-53
2021/09/19 03:12:58;;;;;;;18.95;11.43;;;13.10;99.90;;;;;;21089125;28;20343;-49
2021/09/19 03:23:00;;;;;;;20.30;11.35;;;13.10;99.90;;;;;;21087392;28;20433;-48
2021/09/19 03:33:02;;;;;;;19.40;11.93;;;13.10;99.90;;;;;;21053539;28;20440;-48
2021/09/19 03:43:03;;;;;;;16.33;9.80;;;13.10;99.90;;;;;;21001978;28;20036;-49
2021/09/19 03:53:06;;;;;;;17.27;10.23;;;13.10;99.90;;;;;;21001273;28;20032;-51
2021/09/19 04:03:08;;;;;;;16.30;9.75;;;13.10;99.90;;;;;;21000256;28;20040;-50
2021/09/19 04:13:10;;;;;;;16.25;9.30;;;13.10;99.90;;;;;;20999938;28;20036;-51
2021/09/19 04:23:12;;;;;;;16.70;10.32;;;13.10;99.90;;;;;;21005342;28;20633;-51
2021/09/19 04:33:14;;;;;;;16.77;10.18;;;13.10;99.90;;;;;;21009541;28;20048;-48
2021/09/19 04:43:16;;;;;;;15.68;10.60;;;13.00;99.90;;;;;;21004343;28;20036;-50
2021/09/19 04:53:18;;;;;;;30.92;10.65;;;13.00;99.90;;;;;;21016998;28;20032;-49
2021/09/19 05:03:20;;;;;;;19.42;11.27;;;13.00;99.90;;;;;;21009045;28;20090;-50
2021/09/19 05:13:22;;;;;;;18.27;9.75;;;12.90;99.90;;;;;;21002109;28;20028;-50
2021/09/19 05:23:24;;;;;;;12.45;7.45;;;12.90;99.90;;;;;;21003351;28;20028;-50
2021/09/19 05:33:26;;;;;;;19.13;10.40;;;12.90;99.90;;;;;;20997797;28;20075;-50
2021/09/19 05:43:28;;;;;;;19.67;10.65;;;12.90;99.90;;;;;;20995841;28;20029;-49
2021/09/19 05:53:30;;;;;;;16.55;10.38;;;12.90;99.90;;;;;;21077977;28;20032;-50
2021/09/19 06:03:32;;;;;;;16.83;10.70;;;12.90;99.90;;;;;;21077758;28;20028;-51
2021/09/19 06:13:34;;;;;;;17.27;10.52;;;12.90;99.90;;;;;;21076024;28;20453;-48
2021/09/19 06:23:36;;;;;;;17.65;10.80;;;13.00;99.90;;;;;;21073486;28;20036;-48
2021/09/19 06:33:39;;;;;;;17.70;10.18;;;13.00;99.90;;;;;;21036282;28;20549;-51
2021/09/19 06:43:40;;;;;;;13.68;9.68;;;13.10;99.90;;;;;;21041309;28;20032;-50
2021/09/19 06:53:42;;;;;;;15.15;9.10;;;13.20;99.90;;;;;;21082321;28;20028;-49
2021/09/19 07:03:44;;;;;;;12.75;8.32;;;13.20;99.90;;;;;;21083024;28;20429;-48
2021/09/19 07:13:46;;;;;;;11.75;7.90;;;13.30;99.90;;;;;;21088446;28;20077;-48
2021/09/19 07:23:49;;;;;;;13.00;8.10;;;13.30;99.90;;;;;;21078944;28;20037;-49
2021/09/19 07:33:51;;;;;;;13.40;7.60;;;13.30;99.90;;;;;;21041535;28;20052;-52
2021/09/19 07:43:54;;;;;;;11.35;7.15;;;13.20;99.90;;;;;;21003882;28;20031;-50
2021/09/19 07:53:57;;;;;;;13.65;7.97;;;13.20;99.90;;;;;;21008944;28;20041;-48
2021/09/19 08:03:59;;;;;;;13.05;7.35;;;13.50;99.90;;;;;;21007455;28;20097;-49
2021/09/19 08:14:07;;;;;;;10.02;7.18;;;13.90;99.90;;;;;;21007272;28;20357;-49
2021/09/19 08:24:11;;;;;;;12.77;6.72;;;14.40;99.90;;;;;;21002259;28;20032;-50
2021/09/19 08:34:13;;;;;;;8.52;5.80;;;14.90;99.90;;;;;;20996611;28;20035;-52
2021/09/19 08:44:18;;;;;;;7.13;5.38;;;15.20;99.90;;;;;;20994954;28;20102;-49
2021/09/19 08:54:20;;;;;;;9.00;6.18;;;15.00;99.90;;;;;;20996650;28;20048;-50
2021/09/19 09:04:23;;;;;;;7.95;5.85;;;14.60;99.90;;;;;;20995686;28;20025;-51
2021/09/19 09:14:25;;;;;;;6.80;5.28;;;14.30;99.90;;;;;;20994750;28;20043;-50
2021/09/19 09:24:27;;;;;;;7.90;5.55;;;14.30;99.90;;;;;;20993311;28;20028;-50
2021/09/19 09:34:29;;;;;;;10.20;6.70;;;14.20;99.90;;;;;;20992026;28;20086;-49
2021/09/19 09:44:40;;;;;;;8.77;6.20;;;14.20;99.90;;;;;;21001140;28;20043;-53
2021/09/19 09:54:48;;;;;;;8.38;6.40;;;14.20;99.90;;;;;;21092065;28;20104;-49
2021/09/19 10:04:52;;;;;;;8.10;6.03;;;14.20;99.90;;;;;;21082093;28;20036;-48
2021/09/19 10:14:55;;;;;;;63.90;10.18;;;14.30;99.90;;;;;;21077799;28;20032;-48
2021/09/19 10:24:57;;;;;;;117.22;11.57;;;14.30;99.90;;;;;;21080012;28;20036;-48
2021/09/19 10:34:59;;;;;;;596.38;29.45;;;14.10;99.90;;;;;;21031592;28;20045;-48
2021/09/19 10:45:07;;;;;;;791.88;44.80;;;13.60;99.90;;;;;;21049508;28;20078;-48
2021/09/19 10:55:23;;;;;;;1054.03;54.30;;;13.60;99.90;;;;;;21072092;28;20039;-48
2021/09/19 11:05:29;;;;;;;469.27;26.75;;;13.50;99.90;;;;;;21076785;28;20094;-48
2021/09/19 11:15:33;;;;;;;340.60;19.70;;;13.40;99.90;;;;;;21074903;28;20492;-48
2021/09/19 11:25:38;;;;;;;158.00;14.27;;;13.30;99.90;;;;;;21088291;28;20024;-50
2021/09/19 11:35:40;;;;;;;12.05;6.65;;;13.30;99.90;;;;;;21030227;28;20052;-48
2021/09/19 11:45:44;;;;;;;4.47;3.60;;;13.60;99.90;;;;;;21002787;28;20054;-50
2021/09/19 11:55:46;;;;;;;3.58;2.55;;;15.10;99.90;;;;;;21000698;28;20035;-48
2021/09/19 12:05:57;;;;;;;1.52;1.42;;;15.40;99.90;;;;;;20998977;28;20379;-50
2021/09/19 12:16:13;;;;;;;4.07;2.92;;;16.20;99.90;;;;;;20997747;28;20037;-49
2021/09/19 12:26:21;;;;;;;2.35;2.05;;;16.00;99.90;;;;;;20998607;28;20496;-51
2021/09/19 12:36:23;;;;;;;3.25;2.60;;;15.40;99.90;;;;;;20997315;28;20569;-51
2021/09/19 12:46:25;;;;;;;1.85;1.42;;;15.10;99.90;;;;;;20995967;28;20040;-49
2021/09/19 12:56:27;;;;;;;3.83;2.20;;;15.20;99.90;;;;;;20994552;28;20484;-50
2021/09/19 13:06:35;;;;;;;3.13;2.20;;;14.90;99.90;;;;;;20993772;28;20035;-49
2021/09/19 13:16:41;;;;;;;3.08;2.10;;;14.70;99.90;;;;;;20992684;28;20426;-48
2021/09/19 13:26:43;;;;;;;3.70;2.90;;;14.40;99.90;;;;;;20993160;28;20055;-50
2021/09/19 13:36:45;;;;;;;3.65;3.00;;;14.40;99.90;;;;;;20989953;28;20052;-49
2021/09/19 13:46:47;;;;;;;7.00;3.50;;;14.70;99.90;;;;;;21019154;28;20081;-49
2021/09/19 13:56:50;;;;;;;3.03;2.55;;;14.70;99.90;;;;;;21072501;28;20028;-51
2021/09/19 14:06:52;;;;;;;3.40;2.55;;;15.00;99.90;;;;;;21072669;28;20112;-52
2021/09/19 14:16:54;;;;;;;3.22;2.70;;;14.90;99.90;;;;;;21072035;28;20032;-53
